sensor_id;sensor_type;location;lat;lon;timestamp;temperature;humidity
5200;DHT22;2619;47.868;11.892;2023-08-17T00:00:57;16.50;99.90
5200;DHT22;2619;47.868;11.892;2023-08-17T00:03:22;16.50;99.90
5200;DHT22;2619;47.868;11.892;2023-08-17T00:05:48;16.40;99.90
5200;DHT22;2619;47.868;11.892;2023-08-17T00:08:13;16.50;99.90
5200;DHT22;2619;47.868;11.892;2023-08-17T00:10:39;16.50;99.90
5200;DHT22;2619;47.868;11.892;2023-08-17T00:13:04;16.70;99.90
5200;DHT22;2619;47.868;11.892;2023-08-17T00:15:30;16.80;99.90
5200;DHT22;2619;47.868;11.892;2023-08-17T00:17:56;16.80;99.90
5200;DHT22;2619;47.868;11.892;2023-08-17T00:20:21;16.70;99.90
5200;DHT22;2619;47.868;11.892;2023-08-17T00:22:47;16.70;99.90
5200;DHT22;2619;47.868;11.892;2023-08-17T00:25:13;16.70;99.90
5200;DHT22;2619;47.868;11.892;2023-08-17T00:27:39;16.60;99.90
5200;DHT22;2619;47.868;11.892;2023-08-17T00:30:05;16.40;99.90
5200;DHT22;2619;47.868;11.892;2023-08-17T00:32:30;16.40;99.90
5200;DHT22;2619;47.868;11.892;2023-08-17T00:34:56;16.30;99.90
5200;DHT22;2619;47.868;11.892;2023-08-17T00:37:22;16.30;99.90
5200;DHT22;2619;47.868;11.892;2023-08-17T00:39:47;16.20;99.90
5200;DHT22;2619;47.868;11.892;2023-08-17T00:42:13;16.20;99.90
5200;DHT22;2619;47.868;11.892;2023-08-17T00:44:38;16.20;99.90
5200;DHT22;2619;47.868;11.892;2023-08-17T00:47:04;16.20;99.90
5200;DHT22;2619;47.868;11.892;2023-08-17T00:49:31;16.20;99.90
5200;DHT22;2619;47.868;11.892;2023-08-17T00:51:57;16.20;99.90
5200;DHT22;2619;47.868;11.892;2023-08-17T00:54:27;16.20;99.90
5200;DHT22;2619;47.868;11.892;2023-08-17T00:56:54;16.20;99.90
5200;DHT22;2619;47.868;11.892;2023-08-17T00:59:21;16.10;99.90
5200;DHT22;2619;47.868;11.892;2023-08-17T01:01:47;16.20;99.90
5200;DHT22;2619;47.868;11.892;2023-08-17T01:04:13;16.20;99.90
5200;DHT22;2619;47.868;11.892;2023-08-17T01:06:39;16.10;99.90
5200;DHT22;2619;47.868;11.892;2023-08-17T01:09:05;16.20;99.90
5200;DHT22;2619;47.868;11.892;2023-08-17T01:11:36;16.10;99.90
5200;DHT22;2619;47.868;11.892;2023-08-17T01:14:09;16.20;99.90
5200;DHT22;2619;47.868;11.892;2023-08-17T01:16:50;16.20;99.90
5200;DHT22;2619;47.868;11.892;2023-08-17T01:19:26;16.20;99.90
5200;DHT22;2619;47.868;11.892;2023-08-17T01:21:57;16.20;99.90
5200;DHT22;2619;47.868;11.892;2023-08-17T01:24:23;16.20;99.90
5200;DHT22;2619;47.868;11.892;2023-08-17T01:26:48;16.20;99.90
5200;DHT22;2619;47.868;11.892;2023-08-17T01:29:15;16.20;99.90
5200;DHT22;2619;47.868;11.892;2023-08-17T01:31:52;16.20;99.90
5200;DHT22;2619;47.868;11.892;2023-08-17T01:34:22;16.10;99.90
5200;DHT22;2619;47.868;11.892;2023-08-17T01:36:59;16.10;99.90
5200;DHT22;2619;47.868;11.892;2023-08-17T01:39:37;16.10;99.90
5200;DHT22;2619;47.868;11.892;2023-08-17T01:42:03;16.10;99.90
5200;DHT22;2619;47.868;11.892;2023-08-17T01:44:30;16.00;99.90
5200;DHT22;2619;47.868;11.892;2023-08-17T01:46:56;16.00;99.90
5200;DHT22;2619;47.868;11.892;2023-08-17T01:49:21;15.90;99.90
5200;DHT22;2619;47.868;11.892;2023-08-17T01:51:47;15.90;99.90
5200;DHT22;2619;47.868;11.892;2023-08-17T01:54:12;15.90;99.90
5200;DHT22;2619;47.868;11.892;2023-08-17T01:56:38;15.90;99.90
5200;DHT22;2619;47.868;11.892;2023-08-17T01:59:04;15.80;99.90
5200;DHT22;2619;47.868;11.892;2023-08-17T02:01:29;15.80;99.90
5200;DHT22;2619;47.868;11.892;2023-08-17T02:03:55;15.80;99.90
5200;DHT22;2619;47.868;11.892;2023-08-17T02:06:20;15.70;99.90
5200;DHT22;2619;47.868;11.892;2023-08-17T02:08:46;15.70;99.90
5200;DHT22;2619;47.868;11.892;2023-08-17T02:11:11;15.60;99.90
5200;DHT22;2619;47.868;11.892;2023-08-17T02:13:37;15.60;99.90
5200;DHT22;2619;47.868;11.892;2023-08-17T02:16:04;15.50;99.90
5200;DHT22;2619;47.868;11.892;2023-08-17T02:18:29;15.50;99.90
5200;DHT22;2619;47.868;11.892;2023-08-17T02:20:57;15.40;99.90
5200;DHT22;2619;47.868;11.892;2023-08-17T02:23:22;15.50;99.90
5200;DHT22;2619;47.868;11.892;2023-08-17T02:25:48;15.60;99.90
5200;DHT22;2619;47.868;11.892;2023-08-17T02:28:14;15.60;99.90
5200;DHT22;2619;47.868;11.892;2023-08-17T02:30:39;15.60;99.90
5200;DHT22;2619;47.868;11.892;2023-08-17T02:33:05;15.50;99.90
5200;DHT22;2619;47.868;11.892;2023-08-17T02:35:31;15.60;99.90
5200;DHT22;2619;47.868;11.892;2023-08-17T02:37:56;15.50;99.90
5200;DHT22;2619;47.868;11.892;2023-08-17T02:40:22;15.50;99.90
5200;DHT22;2619;47.868;11.892;2023-08-17T02:42:47;15.40;99.90
5200;DHT22;2619;47.868;11.892;2023-08-17T02:45:13;15.40;99.90
5200;DHT22;2619;47.868;11.892;2023-08-17T02:47:38;15.40;99.90
5200;DHT22;2619;47.868;11.892;2023-08-17T02:50:05;15.30;99.90
5200;DHT22;2619;47.868;11.892;2023-08-17T02:52:31;15.30;99.90
5200;DHT22;2619;47.868;11.892;2023-08-17T02:54:56;15.30;99.90
5200;DHT22;2619;47.868;11.892;2023-08-17T02:57:22;15.30;99.90
5200;DHT22;2619;47.868;11.892;2023-08-17T02:59:47;15.30;99.90
5200;DHT22;2619;47.868;11.892;2023-08-17T03:02:13;15.30;99.90
5200;DHT22;2619;47.868;11.892;2023-08-17T03:04:38;15.20;99.90
5200;DHT22;2619;47.868;11.892;2023-08-17T03:07:04;15.20;99.90
5200;DHT22;2619;47.868;11.892;2023-08-17T03:09:29;15.30;99.90
5200;DHT22;2619;47.868;11.892;2023-08-17T03:11:55;15.30;99.90
5200;DHT22;2619;47.868;11.892;2023-08-17T03:14:20;15.20;99.90
5200;DHT22;2619;47.868;11.892;2023-08-17T03:16:46;15.20;99.90
5200;DHT22;2619;47.868;11.892;2023-08-17T03:19:12;15.30;99.90
5200;DHT22;2619;47.868;11.892;2023-08-17T03:21:38;15.40;99.90
5200;DHT22;2619;47.868;11.892;2023-08-17T03:24:03;15.30;99.90
5200;DHT22;2619;47.868;11.892;2023-08-17T03:26:29;15.30;99.90
5200;DHT22;2619;47.868;11.892;2023-08-17T03:28:55;15.30;99.90
5200;DHT22;2619;47.868;11.892;2023-08-17T03:31:21;15.30;99.90
5200;DHT22;2619;47.868;11.892;2023-08-17T03:33:47;15.20;99.90
5200;DHT22;2619;47.868;11.892;2023-08-17T03:36:13;15.20;99.90
5200;DHT22;2619;47.868;11.892;2023-08-17T03:38:38;15.20;99.90
5200;DHT22;2619;47.868;11.892;2023-08-17T03:41:05;15.20;99.90
5200;DHT22;2619;47.868;11.892;2023-08-17T03:43:31;15.20;99.90
5200;DHT22;2619;47.868;11.892;2023-08-17T03:45:56;15.20;99.90
5200;DHT22;2619;47.868;11.892;2023-08-17T03:48:22;15.20;99.90
5200;DHT22;2619;47.868;11.892;2023-08-17T03:50:54;15.10;99.90
5200;DHT22;2619;47.868;11.892;2023-08-17T03:53:20;15.10;99.90
5200;DHT22;2619;47.868;11.892;2023-08-17T03:55:47;15.10;99.90
5200;DHT22;2619;47.868;11.892;2023-08-17T03:58:13;15.10;99.90
5200;DHT22;2619;47.868;11.892;2023-08-17T04:00:38;15.10;99.90
5200;DHT22;2619;47.868;11.892;2023-08-17T04:03:06;15.10;99.90
5200;DHT22;2619;47.868;11.892;2023-08-17T04:05:31;15.10;99.90
5200;DHT22;2619;47.868;11.892;2023-08-17T04:07:58;15.10;99.90
5200;DHT22;2619;47.868;11.892;2023-08-17T04:10:27;15.20;99.90
5200;DHT22;2619;47.868;11.892;2023-08-17T04:12:52;15.30;99.90
5200;DHT22;2619;47.868;11.892;2023-08-17T04:15:18;15.30;99.90
5200;DHT22;2619;47.868;11.892;2023-08-17T04:17:43;15.30;99.90
5200;DHT22;2619;47.868;11.892;2023-08-17T04:20:09;15.30;99.90
5200;DHT22;2619;47.868;11.892;2023-08-17T04:22:35;15.30;99.90
5200;DHT22;2619;47.868;11.892;2023-08-17T04:25:01;15.30;99.90
5200;DHT22;2619;47.868;11.892;2023-08-17T04:27:26;15.30;99.90
5200;DHT22;2619;47.868;11.892;2023-08-17T04:29:52;15.30;99.90
5200;DHT22;2619;47.868;11.892;2023-08-17T04:32:17;15.30;99.90
5200;DHT22;2619;47.868;11.892;2023-08-17T04:34:44;15.40;99.90
5200;DHT22;2619;47.868;11.892;2023-08-17T04:37:10;15.40;99.90
5200;DHT22;2619;47.868;11.892;2023-08-17T04:39:35;15.40;99.90
5200;DHT22;2619;47.868;11.892;2023-08-17T04:42:02;15.40;99.90
5200;DHT22;2619;47.868;11.892;2023-08-17T04:44:27;15.50;99.90
5200;DHT22;2619;47.868;11.892;2023-08-17T04:46:53;15.60;99.90
5200;DHT22;2619;47.868;11.892;2023-08-17T04:49:18;15.60;99.90
5200;DHT22;2619;47.868;11.892;2023-08-17T04:51:44;15.60;99.90
5200;DHT22;2619;47.868;11.892;2023-08-17T04:54:09;15.70;99.90
5200;DHT22;2619;47.868;11.892;2023-08-17T04:56:35;15.80;99.90
5200;DHT22;2619;47.868;11.892;2023-08-17T04:59:01;15.90;99.90
5200;DHT22;2619;47.868;11.892;2023-08-17T05:01:26;16.10;99.90
5200;DHT22;2619;47.868;11.892;2023-08-17T05:03:52;16.10;99.90
5200;DHT22;2619;47.868;11.892;2023-08-17T05:06:17;16.30;99.90
5200;DHT22;2619;47.868;11.892;2023-08-17T05:08:43;16.40;99.90
5200;DHT22;2619;47.868;11.892;2023-08-17T05:11:08;16.50;99.90
5200;DHT22;2619;47.868;11.892;2023-08-17T05:13:34;16.60;99.90
5200;DHT22;2619;47.868;11.892;2023-08-17T05:15:59;16.70;99.90
5200;DHT22;2619;47.868;11.892;2023-08-17T05:18:25;16.90;99.90
5200;DHT22;2619;47.868;11.892;2023-08-17T05:20:50;17.00;99.90
5200;DHT22;2619;47.868;11.892;2023-08-17T05:23:16;17.30;99.90
5200;DHT22;2619;47.868;11.892;2023-08-17T05:25:41;17.50;99.90
5200;DHT22;2619;47.868;11.892;2023-08-17T05:28:10;17.90;99.90
5200;DHT22;2619;47.868;11.892;2023-08-17T05:30:36;18.40;99.90
5200;DHT22;2619;47.868;11.892;2023-08-17T05:33:02;18.80;99.90
5200;DHT22;2619;47.868;11.892;2023-08-17T05:35:27;19.20;99.90
5200;DHT22;2619;47.868;11.892;2023-08-17T05:37:53;19.50;99.90
5200;DHT22;2619;47.868;11.892;2023-08-17T05:40:18;19.90;99.90
5200;DHT22;2619;47.868;11.892;2023-08-17T05:42:44;20.30;99.90
5200;DHT22;2619;47.868;11.892;2023-08-17T05:45:10;20.50;99.90
5200;DHT22;2619;47.868;11.892;2023-08-17T05:47:35;20.90;99.90
5200;DHT22;2619;47.868;11.892;2023-08-17T05:50:01;21.20;99.90
5200;DHT22;2619;47.868;11.892;2023-08-17T05:52:27;21.20;99.90
5200;DHT22;2619;47.868;11.892;2023-08-17T05:54:52;21.40;99.90
5200;DHT22;2619;47.868;11.892;2023-08-17T05:57:18;21.50;99.90
5200;DHT22;2619;47.868;11.892;2023-08-17T05:59:43;21.60;99.90
5200;DHT22;2619;47.868;11.892;2023-08-17T06:02:09;21.80;99.90
5200;DHT22;2619;47.868;11.892;2023-08-17T06:04:34;22.10;99.90
5200;DHT22;2619;47.868;11.892;2023-08-17T06:07:00;22.50;99.90
5200;DHT22;2619;47.868;11.892;2023-08-17T06:09:25;22.90;99.90
5200;DHT22;2619;47.868;11.892;2023-08-17T06:11:51;23.10;99.90
5200;DHT22;2619;47.868;11.892;2023-08-17T06:14:17;23.40;99.90
5200;DHT22;2619;47.868;11.892;2023-08-17T06:16:42;23.60;99.90
5200;DHT22;2619;47.868;11.892;2023-08-17T06:19:08;23.60;99.90
5200;DHT22;2619;47.868;11.892;2023-08-17T06:21:33;23.80;99.90
5200;DHT22;2619;47.868;11.892;2023-08-17T06:23:59;24.10;99.90
5200;DHT22;2619;47.868;11.892;2023-08-17T06:26:24;24.40;99.90
5200;DHT22;2619;47.868;11.892;2023-08-17T06:28:50;24.50;99.90
5200;DHT22;2619;47.868;11.892;2023-08-17T06:31:15;24.70;99.90
5200;DHT22;2619;47.868;11.892;2023-08-17T06:33:41;25.00;99.90
5200;DHT22;2619;47.868;11.892;2023-08-17T06:36:06;25.30;99.90
5200;DHT22;2619;47.868;11.892;2023-08-17T06:38:32;25.80;99.90
5200;DHT22;2619;47.868;11.892;2023-08-17T06:40:57;25.80;99.90
5200;DHT22;2619;47.868;11.892;2023-08-17T06:43:23;25.80;99.90
5200;DHT22;2619;47.868;11.892;2023-08-17T06:45:49;26.00;99.90
5200;DHT22;2619;47.868;11.892;2023-08-17T06:48:14;26.20;99.90
5200;DHT22;2619;47.868;11.892;2023-08-17T06:50:40;25.80;99.90
5200;DHT22;2619;47.868;11.892;2023-08-17T06:53:05;25.30;99.90
5200;DHT22;2619;47.868;11.892;2023-08-17T06:55:31;25.20;99.90
5200;DHT22;2619;47.868;11.892;2023-08-17T06:57:57;25.10;99.90
5200;DHT22;2619;47.868;11.892;2023-08-17T07:00:22;25.10;99.90
5200;DHT22;2619;47.868;11.892;2023-08-17T07:02:48;24.90;99.90
5200;DHT22;2619;47.868;11.892;2023-08-17T07:05:14;24.80;99.90
5200;DHT22;2619;47.868;11.892;2023-08-17T07:07:40;24.70;99.90
5200;DHT22;2619;47.868;11.892;2023-08-17T07:10:07;24.50;99.90
5200;DHT22;2619;47.868;11.892;2023-08-17T07:12:33;24.20;99.90
5200;DHT22;2619;47.868;11.892;2023-08-17T07:14:59;23.80;99.90
5200;DHT22;2619;47.868;11.892;2023-08-17T07:17:24;23.80;99.90
5200;DHT22;2619;47.868;11.892;2023-08-17T07:19:50;23.80;99.90
5200;DHT22;2619;47.868;11.892;2023-08-17T07:22:15;23.60;99.90
5200;DHT22;2619;47.868;11.892;2023-08-17T07:24:44;23.80;99.90
5200;DHT22;2619;47.868;11.892;2023-08-17T07:27:09;24.10;99.90
5200;DHT22;2619;47.868;11.892;2023-08-17T07:29:35;24.30;99.90
5200;DHT22;2619;47.868;11.892;2023-08-17T07:32:01;24.50;99.90
5200;DHT22;2619;47.868;11.892;2023-08-17T07:34:28;24.60;99.90
5200;DHT22;2619;47.868;11.892;2023-08-17T07:36:55;24.70;99.90
5200;DHT22;2619;47.868;11.892;2023-08-17T07:39:21;24.80;99.90
5200;DHT22;2619;47.868;11.892;2023-08-17T07:41:46;24.80;99.90
5200;DHT22;2619;47.868;11.892;2023-08-17T07:44:12;24.90;99.90
5200;DHT22;2619;47.868;11.892;2023-08-17T07:46:38;24.90;99.90
5200;DHT22;2619;47.868;11.892;2023-08-17T07:49:03;24.90;99.90
5200;DHT22;2619;47.868;11.892;2023-08-17T07:51:29;25.00;99.90
5200;DHT22;2619;47.868;11.892;2023-08-17T07:53:57;25.20;99.90
5200;DHT22;2619;47.868;11.892;2023-08-17T07:56:22;25.10;99.90
5200;DHT22;2619;47.868;11.892;2023-08-17T07:58:49;25.10;99.90
5200;DHT22;2619;47.868;11.892;2023-08-17T08:01:15;25.30;99.90
5200;DHT22;2619;47.868;11.892;2023-08-17T08:03:40;25.40;99.90
5200;DHT22;2619;47.868;11.892;2023-08-17T08:06:06;25.10;99.90
5200;DHT22;2619;47.868;11.892;2023-08-17T08:08:31;25.10;99.90
5200;DHT22;2619;47.868;11.892;2023-08-17T08:10:58;25.20;99.90
5200;DHT22;2619;47.868;11.892;2023-08-17T08:13:24;25.20;99.90
5200;DHT22;2619;47.868;11.892;2023-08-17T08:15:49;25.30;99.90
5200;DHT22;2619;47.868;11.892;2023-08-17T08:18:15;25.50;99.90
5200;DHT22;2619;47.868;11.892;2023-08-17T08:20:40;25.60;99.90
5200;DHT22;2619;47.868;11.892;2023-08-17T08:23:06;25.70;99.90
5200;DHT22;2619;47.868;11.892;2023-08-17T08:25:32;25.80;99.90
5200;DHT22;2619;47.868;11.892;2023-08-17T08:27:57;25.30;99.90
5200;DHT22;2619;47.868;11.892;2023-08-17T08:30:23;25.30;99.90
5200;DHT22;2619;47.868;11.892;2023-08-17T08:32:48;25.50;99.90
5200;DHT22;2619;47.868;11.892;2023-08-17T08:35:14;25.70;99.90
5200;DHT22;2619;47.868;11.892;2023-08-17T08:37:39;25.80;99.90
5200;DHT22;2619;47.868;11.892;2023-08-17T08:40:11;25.90;99.90
5200;DHT22;2619;47.868;11.892;2023-08-17T08:42:37;25.80;99.90
5200;DHT22;2619;47.868;11.892;2023-08-17T08:45:03;25.40;99.90
5200;DHT22;2619;47.868;11.892;2023-08-17T08:47:30;25.60;99.90
5200;DHT22;2619;47.868;11.892;2023-08-17T08:50:01;25.90;99.90
5200;DHT22;2619;47.868;11.892;2023-08-17T08:52:35;26.10;99.90
5200;DHT22;2619;47.868;11.892;2023-08-17T08:55:10;26.30;99.90
5200;DHT22;2619;47.868;11.892;2023-08-17T08:57:36;26.30;99.90
5200;DHT22;2619;47.868;11.892;2023-08-17T09:00:02;26.40;99.90
5200;DHT22;2619;47.868;11.892;2023-08-17T09:02:30;26.70;99.90
5200;DHT22;2619;47.868;11.892;2023-08-17T09:04:56;26.90;99.90
5200;DHT22;2619;47.868;11.892;2023-08-17T09:07:22;27.00;99.90
5200;DHT22;2619;47.868;11.892;2023-08-17T09:09:48;27.20;99.90
5200;DHT22;2619;47.868;11.892;2023-08-17T09:12:14;27.30;99.90
5200;DHT22;2619;47.868;11.892;2023-08-17T09:14:40;27.40;99.90
5200;DHT22;2619;47.868;11.892;2023-08-17T09:17:07;27.20;99.90
5200;DHT22;2619;47.868;11.892;2023-08-17T09:19:33;27.00;99.90
5200;DHT22;2619;47.868;11.892;2023-08-17T09:22:01;27.00;99.90
5200;DHT22;2619;47.868;11.892;2023-08-17T09:24:34;27.10;99.90
5200;DHT22;2619;47.868;11.892;2023-08-17T09:27:01;27.10;99.90
5200;DHT22;2619;47.868;11.892;2023-08-17T09:29:26;27.30;99.90
5200;DHT22;2619;47.868;11.892;2023-08-17T09:31:52;27.20;99.90
5200;DHT22;2619;47.868;11.892;2023-08-17T09:34:19;27.20;99.90
5200;DHT22;2619;47.868;11.892;2023-08-17T09:36:47;27.20;99.90
5200;DHT22;2619;47.868;11.892;2023-08-17T09:39:15;27.30;99.90
5200;DHT22;2619;47.868;11.892;2023-08-17T09:41:41;27.40;99.90
5200;DHT22;2619;47.868;11.892;2023-08-17T09:44:07;27.60;99.90
5200;DHT22;2619;47.868;11.892;2023-08-17T09:46:33;27.70;99.90
5200;DHT22;2619;47.868;11.892;2023-08-17T09:49:01;27.60;99.90
5200;DHT22;2619;47.868;11.892;2023-08-17T09:51:27;27.60;99.90
5200;DHT22;2619;47.868;11.892;2023-08-17T09:53:53;27.40;99.90
5200;DHT22;2619;47.868;11.892;2023-08-17T09:56:21;27.50;99.90
5200;DHT22;2619;47.868;11.892;2023-08-17T09:58:48;27.30;99.90
5200;DHT22;2619;47.868;11.892;2023-08-17T10:01:14;27.40;99.90
5200;DHT22;2619;47.868;11.892;2023-08-17T10:03:43;27.40;99.90
5200;DHT22;2619;47.868;11.892;2023-08-17T10:06:13;27.60;99.90
5200;DHT22;2619;47.868;11.892;2023-08-17T10:08:46;27.80;99.90
5200;DHT22;2619;47.868;11.892;2023-08-17T10:11:12;27.90;99.90
5200;DHT22;2619;47.868;11.892;2023-08-17T10:13:46;27.90;99.90
5200;DHT22;2619;47.868;11.892;2023-08-17T10:16:34;28.00;99.90
5200;DHT22;2619;47.868;11.892;2023-08-17T10:19:19;28.10;99.90
5200;DHT22;2619;47.868;11.892;2023-08-17T10:21:56;28.20;99.90
5200;DHT22;2619;47.868;11.892;2023-08-17T10:24:24;28.40;99.90
5200;DHT22;2619;47.868;11.892;2023-08-17T10:26:50;28.60;99.90
5200;DHT22;2619;47.868;11.892;2023-08-17T10:29:16;28.80;99.90
5200;DHT22;2619;47.868;11.892;2023-08-17T10:31:46;28.80;99.90
5200;DHT22;2619;47.868;11.892;2023-08-17T10:34:13;28.90;99.90
5200;DHT22;2619;47.868;11.892;2023-08-17T10:36:39;29.20;99.90
5200;DHT22;2619;47.868;11.892;2023-08-17T10:39:20;29.20;99.90
5200;DHT22;2619;47.868;11.892;2023-08-17T10:41:50;29.30;99.90
5200;DHT22;2619;47.868;11.892;2023-08-17T10:44:18;29.40;99.90
5200;DHT22;2619;47.868;11.892;2023-08-17T10:46:44;29.30;99.90
5200;DHT22;2619;47.868;11.892;2023-08-17T10:49:26;29.10;99.90
5200;DHT22;2619;47.868;11.892;2023-08-17T10:52:07;29.30;99.90
5200;DHT22;2619;47.868;11.892;2023-08-17T10:54:39;29.30;99.90
5200;DHT22;2619;47.868;11.892;2023-08-17T11:00:25;29.70;99.90
5200;DHT22;2619;47.868;11.892;2023-08-17T11:02:59;29.70;99.90
5200;DHT22;2619;47.868;11.892;2023-08-17T11:08:04;29.50;99.90
5200;DHT22;2619;47.868;11.892;2023-08-17T11:10:30;29.50;99.90
5200;DHT22;2619;47.868;11.892;2023-08-17T11:12:57;29.60;99.90
5200;DHT22;2619;47.868;11.892;2023-08-17T11:15:35;29.80;99.90
5200;DHT22;2619;47.868;11.892;2023-08-17T11:18:07;30.00;99.90
5200;DHT22;2619;47.868;11.892;2023-08-17T11:20:34;30.20;99.90
5200;DHT22;2619;47.868;11.892;2023-08-17T11:22:59;30.10;99.90
5200;DHT22;2619;47.868;11.892;2023-08-17T11:25:28;30.30;99.90
5200;DHT22;2619;47.868;11.892;2023-08-17T11:27:54;30.30;99.90
5200;DHT22;2619;47.868;11.892;2023-08-17T11:30:23;30.30;99.90
5200;DHT22;2619;47.868;11.892;2023-08-17T11:32:53;30.30;99.90
5200;DHT22;2619;47.868;11.892;2023-08-17T11:35:19;30.40;99.90
5200;DHT22;2619;47.868;11.892;2023-08-17T11:37:45;30.30;99.90
5200;DHT22;2619;47.868;11.892;2023-08-17T11:40:11;30.20;99.90
5200;DHT22;2619;47.868;11.892;2023-08-17T11:42:37;29.80;99.90
5200;DHT22;2619;47.868;11.892;2023-08-17T11:45:04;29.80;99.90
5200;DHT22;2619;47.868;11.892;2023-08-17T11:57:44;30.70;99.90
5200;DHT22;2619;47.868;11.892;2023-08-17T12:00:10;31.00;99.90
5200;DHT22;2619;47.868;11.892;2023-08-17T12:02:42;30.80;99.90
5200;DHT22;2619;47.868;11.892;2023-08-17T12:05:08;30.70;99.90
5200;DHT22;2619;47.868;11.892;2023-08-17T12:07:35;30.90;99.90
5200;DHT22;2619;47.868;11.892;2023-08-17T12:10:05;30.70;99.90
5200;DHT22;2619;47.868;11.892;2023-08-17T12:12:37;30.60;99.90
5200;DHT22;2619;47.868;11.892;2023-08-17T12:15:04;30.70;99.90
5200;DHT22;2619;47.868;11.892;2023-08-17T12:17:30;30.80;99.90
5200;DHT22;2619;47.868;11.892;2023-08-17T12:19:55;30.50;99.90
5200;DHT22;2619;47.868;11.892;2023-08-17T12:22:24;30.30;99.90
5200;DHT22;2619;47.868;11.892;2023-08-17T12:24:50;30.30;99.90
5200;DHT22;2619;47.868;11.892;2023-08-17T12:27:16;30.20;99.90
5200;DHT22;2619;47.868;11.892;2023-08-17T12:29:50;30.00;99.90
5200;DHT22;2619;47.868;11.892;2023-08-17T12:32:18;30.40;99.90
5200;DHT22;2619;47.868;11.892;2023-08-17T12:34:44;30.50;99.90
5200;DHT22;2619;47.868;11.892;2023-08-17T12:37:11;30.50;99.90
5200;DHT22;2619;47.868;11.892;2023-08-17T12:39:38;30.60;99.90
5200;DHT22;2619;47.868;11.892;2023-08-17T12:42:04;30.60;99.90
5200;DHT22;2619;47.868;11.892;2023-08-17T12:44:30;30.90;99.90
5200;DHT22;2619;47.868;11.892;2023-08-17T12:46:56;30.80;99.90
5200;DHT22;2619;47.868;11.892;2023-08-17T12:49:22;30.80;99.90
5200;DHT22;2619;47.868;11.892;2023-08-17T12:51:48;30.50;99.90
5200;DHT22;2619;47.868;11.892;2023-08-17T12:54:14;30.00;99.90
5200;DHT22;2619;47.868;11.892;2023-08-17T12:56:39;30.30;99.90
5200;DHT22;2619;47.868;11.892;2023-08-17T12:59:05;30.50;99.90
5200;DHT22;2619;47.868;11.892;2023-08-17T13:01:30;30.60;99.90
5200;DHT22;2619;47.868;11.892;2023-08-17T13:03:56;30.80;99.90
5200;DHT22;2619;47.868;11.892;2023-08-17T13:06:21;31.00;99.90
5200;DHT22;2619;47.868;11.892;2023-08-17T13:08:47;31.10;99.90
5200;DHT22;2619;47.868;11.892;2023-08-17T13:11:13;31.30;99.90
5200;DHT22;2619;47.868;11.892;2023-08-17T13:13:38;30.90;99.90
5200;DHT22;2619;47.868;11.892;2023-08-17T13:16:04;30.60;99.90
5200;DHT22;2619;47.868;11.892;2023-08-17T13:18:29;30.80;99.90
5200;DHT22;2619;47.868;11.892;2023-08-17T13:20:55;30.60;99.90
5200;DHT22;2619;47.868;11.892;2023-08-17T13:23:21;30.50;99.90
5200;DHT22;2619;47.868;11.892;2023-08-17T13:25:47;30.30;99.90
5200;DHT22;2619;47.868;11.892;2023-08-17T13:28:13;30.30;99.90
5200;DHT22;2619;47.868;11.892;2023-08-17T13:30:38;30.50;99.90
5200;DHT22;2619;47.868;11.892;2023-08-17T13:33:05;30.70;99.90
5200;DHT22;2619;47.868;11.892;2023-08-17T13:35:32;30.80;99.90
5200;DHT22;2619;47.868;11.892;2023-08-17T13:37:58;30.70;99.90
5200;DHT22;2619;47.868;11.892;2023-08-17T13:40:23;30.70;99.90
5200;DHT22;2619;47.868;11.892;2023-08-17T13:42:49;30.40;99.90
5200;DHT22;2619;47.868;11.892;2023-08-17T13:45:15;30.30;99.90
5200;DHT22;2619;47.868;11.892;2023-08-17T13:47:40;30.00;99.90
5200;DHT22;2619;47.868;11.892;2023-08-17T13:50:06;29.90;99.90
5200;DHT22;2619;47.868;11.892;2023-08-17T13:52:32;29.80;99.90
5200;DHT22;2619;47.868;11.892;2023-08-17T13:54:58;29.80;99.90
5200;DHT22;2619;47.868;11.892;2023-08-17T13:57:23;29.70;99.90
5200;DHT22;2619;47.868;11.892;2023-08-17T13:59:49;29.70;99.90
5200;DHT22;2619;47.868;11.892;2023-08-17T14:02:14;29.60;99.90
5200;DHT22;2619;47.868;11.892;2023-08-17T14:04:40;29.70;99.90
5200;DHT22;2619;47.868;11.892;2023-08-17T14:07:06;29.60;99.90
5200;DHT22;2619;47.868;11.892;2023-08-17T14:09:31;29.50;99.90
5200;DHT22;2619;47.868;11.892;2023-08-17T14:11:57;29.50;99.90
5200;DHT22;2619;47.868;11.892;2023-08-17T14:14:22;29.50;99.90
5200;DHT22;2619;47.868;11.892;2023-08-17T14:16:48;29.60;99.90
5200;DHT22;2619;47.868;11.892;2023-08-17T14:19:13;29.40;99.90
5200;DHT22;2619;47.868;11.892;2023-08-17T14:21:39;29.30;99.90
5200;DHT22;2619;47.868;11.892;2023-08-17T14:24:05;29.20;99.90
5200;DHT22;2619;47.868;11.892;2023-08-17T14:26:32;29.20;99.90
5200;DHT22;2619;47.868;11.892;2023-08-17T14:28:57;29.20;99.90
5200;DHT22;2619;47.868;11.892;2023-08-17T14:31:23;29.10;99.90
5200;DHT22;2619;47.868;11.892;2023-08-17T14:33:48;29.10;99.90
5200;DHT22;2619;47.868;11.892;2023-08-17T14:36:15;29.10;99.90
5200;DHT22;2619;47.868;11.892;2023-08-17T14:38:41;29.00;99.90
5200;DHT22;2619;47.868;11.892;2023-08-17T14:41:07;29.00;99.90
5200;DHT22;2619;47.868;11.892;2023-08-17T14:43:33;29.00;99.90
5200;DHT22;2619;47.868;11.892;2023-08-17T14:45:59;29.00;99.90
5200;DHT22;2619;47.868;11.892;2023-08-17T14:48:25;28.90;99.90
5200;DHT22;2619;47.868;11.892;2023-08-17T14:50:51;28.70;99.90
5200;DHT22;2619;47.868;11.892;2023-08-17T14:53:16;28.70;99.90
5200;DHT22;2619;47.868;11.892;2023-08-17T14:55:42;28.70;99.90
5200;DHT22;2619;47.868;11.892;2023-08-17T14:58:07;28.60;99.90
5200;DHT22;2619;47.868;11.892;2023-08-17T15:00:33;28.60;99.90
5200;DHT22;2619;47.868;11.892;2023-08-17T15:02:59;28.60;99.90
5200;DHT22;2619;47.868;11.892;2023-08-17T15:05:25;28.50;99.90
5200;DHT22;2619;47.868;11.892;2023-08-17T15:07:50;28.40;99.90
5200;DHT22;2619;47.868;11.892;2023-08-17T15:10:16;28.30;99.90
5200;DHT22;2619;47.868;11.892;2023-08-17T15:12:42;28.00;99.90
5200;DHT22;2619;47.868;11.892;2023-08-17T15:15:08;27.80;99.90
5200;DHT22;2619;47.868;11.892;2023-08-17T15:17:33;27.70;99.90
5200;DHT22;2619;47.868;11.892;2023-08-17T15:19:59;27.50;99.90
5200;DHT22;2619;47.868;11.892;2023-08-17T15:22:26;27.40;99.90
5200;DHT22;2619;47.868;11.892;2023-08-17T15:24:51;27.10;99.90
5200;DHT22;2619;47.868;11.892;2023-08-17T15:27:17;26.90;99.90
5200;DHT22;2619;47.868;11.892;2023-08-17T15:29:43;26.80;99.90
5200;DHT22;2619;47.868;11.892;2023-08-17T15:32:08;26.60;99.90
5200;DHT22;2619;47.868;11.892;2023-08-17T15:34:34;26.30;99.90
5200;DHT22;2619;47.868;11.892;2023-08-17T15:37:00;25.90;99.90
5200;DHT22;2619;47.868;11.892;2023-08-17T15:39:25;25.80;99.90
5200;DHT22;2619;47.868;11.892;2023-08-17T15:41:52;25.70;99.90
5200;DHT22;2619;47.868;11.892;2023-08-17T15:44:18;25.40;99.90
5200;DHT22;2619;47.868;11.892;2023-08-17T15:46:43;25.30;99.90
5200;DHT22;2619;47.868;11.892;2023-08-17T15:49:09;25.40;99.90
5200;DHT22;2619;47.868;11.892;2023-08-17T15:51:34;25.40;99.90
5200;DHT22;2619;47.868;11.892;2023-08-17T15:54:00;25.20;99.90
5200;DHT22;2619;47.868;11.892;2023-08-17T15:56:26;25.20;99.90